Keyes, OK (73947)

4:52 AM CDT on October 24, 2014 (GMT -0500)
Fort Wiegers | Change Station
CLOSE
Current Station
Personal Weather Station
Location: Elkhart, KS
Elevation: 3554 ft
Nearby Weather Stations

Elev 3554 ft 37.04 °N, 101.97 °W | Updated 4 seconds ago

Clear
Clear
53.0 °F
Feels Like 53.0 °F
N
1.0
Wind Variable Wind from WSW
Gusts 4.0 mph

Today
High -- | Low -- °F
--% Chance of Precip.
Yesterday
High -- | Low -- °F
Precip. -- in
8:04 AM 7:00 PM
New Moon, 0% visible
Pressure 29.99 in
Visibility 10.0 miles
Clouds Clear
Dew Point 50 °F
Humidity 90%
Rainfall 0.00 in
Snow Depth Not available.
UV 0 out of 12
Pollen 4.90 out of 12
Air Quality Not available.
Flu Activity No Activity
METAR KGUY 240853Z AUTO 22004KT 10SM CLR 11/10 A3009 RMK AO2 SLP156 T01110100 58003

More Conditions Fewer Conditions

Pressure 29.99 in
Visibility 10.0 miles
Clouds Clear
Dew Point 50 °F
Humidity 90%
Rainfall 0.00 in
Snow Depth Not available.
UV 0 out of 12
Pollen 4.90 out of 12
Air Quality Not available.
Flu Activity No Activity
METAR KGUY 240853Z AUTO 22004KT 10SM CLR 11/10 A3009 RMK AO2 SLP156 T01110100 58003

More Conditions Fewer Conditions

10-Day Weather Forecast

Almanac

Astronomy

Oct. 24, 2014 Rise Set
Actual Time 8:04 AM CDT 7:00 PM CDT
Civil Twilight 7:38 AM CDT 7:27 PM CDT
Nautical Twilight 7:08 AM CDT 7:57 PM CDT
Astronomical Twilight 6:38 AM CDT 8:27 PM CDT
Moon 8:45 AM CDT 7:43 PM CDT
Length of Visible Light 11h 48m
Length of Day
10h 55m
Tomorrow will be 2m 10s shorter.
New Moon, 0% of the Moon is Illuminated
Today
New Moon
Oct 30
First Quarter
Nov 6
Full
Nov 14
Last Quarter
Nov 22
New

Today's Extremes

State Highs State Lows

Community

WunderPhotos

Upload Photos

1,764,513 photos uploaded!

WunderBlogs® & News

Nearby

Snow Depth

Station Depth Elevation
No new snow has been reported.

Earthquake Activity

City Distance Mag. Time & Date
No recent earthquake activity has been reported nearby.
Minimum magnitude displayed is 2.5.

Coastal Water Temperatures

Place Temperature
No Stations Reporting

Nearby Weather Stations